createdAt,value
2022-10-22T00:01:04.826Z,10.93
2022-10-22T00:03:31.738Z,10.96
2022-10-22T00:05:58.280Z,10.87
2022-10-22T00:08:25.040Z,10.86
2022-10-22T00:10:52.795Z,10.92
2022-10-22T00:13:20.474Z,10.92
2022-10-22T00:15:47.061Z,10.81
2022-10-22T00:18:14.064Z,10.82
2022-10-22T00:20:40.775Z,10.91
2022-10-22T00:23:07.348Z,11.01
2022-10-22T00:25:37.041Z,10.94
2022-10-22T00:28:04.303Z,11.02
2022-10-22T00:30:31.073Z,11.02
2022-10-22T00:32:57.656Z,10.97
2022-10-22T00:35:24.481Z,10.98
2022-10-22T00:37:50.958Z,10.78
2022-10-22T00:40:17.717Z,10.90
2022-10-22T00:42:44.290Z,10.98
2022-10-22T00:45:10.788Z,11.03
2022-10-22T00:47:39.292Z,10.98
2022-10-22T00:50:09.389Z,10.91
2022-10-22T00:52:36.779Z,10.84
2022-10-22T00:55:05.077Z,10.73
2022-10-22T00:57:32.143Z,10.74
2022-10-22T00:59:58.806Z,10.58
2022-10-22T01:02:25.671Z,10.70
2022-10-22T01:04:52.591Z,10.62
2022-10-22T01:07:22.611Z,10.55
2022-10-22T01:10:11.896Z,10.68
2022-10-22T01:12:50.853Z,10.60
2022-10-22T01:15:35.187Z,10.55
2022-10-22T01:18:06.615Z,10.60
2022-10-22T01:20:57.982Z,10.76
2022-10-22T01:23:47.708Z,10.77
2022-10-22T01:26:20.363Z,10.71
2022-10-22T01:29:21.280Z,10.72
2022-10-22T01:31:59.494Z,10.98
2022-10-22T01:34:29.234Z,10.87
2022-10-22T01:36:57.837Z,10.93
2022-10-22T01:39:25.798Z,10.95
2022-10-22T01:41:55.686Z,10.86
2022-10-22T01:44:27.301Z,10.91
2022-10-22T01:47:15.756Z,10.99
2022-10-22T01:50:07.243Z,10.91
2022-10-22T01:53:02.414Z,11.00
2022-10-22T01:56:01.283Z,10.97
2022-10-22T01:58:41.518Z,11.00
2022-10-22T02:01:30.222Z,10.89
2022-10-22T02:04:06.084Z,11.00
2022-10-22T02:06:35.115Z,11.06
2022-10-22T02:09:03.964Z,11.14
2022-10-22T02:11:30.863Z,11.08
2022-10-22T02:14:01.505Z,11.02
2022-10-22T02:16:30.731Z,10.95
2022-10-22T02:19:00.616Z,11.01
2022-10-22T02:21:28.397Z,11.01
2022-10-22T02:23:55.159Z,10.98
2022-10-22T02:26:33.360Z,10.87
2022-10-22T02:29:11.038Z,10.99
2022-10-22T02:31:40.493Z,11.15
2022-10-22T02:34:16.384Z,11.05
2022-10-22T02:36:48.052Z,10.89
2022-10-22T02:39:20.093Z,10.95
2022-10-22T02:41:47.159Z,10.90
2022-10-22T02:44:13.835Z,10.85
2022-10-22T02:46:40.799Z,10.80
2022-10-22T02:49:07.700Z,10.87
2022-10-22T02:51:34.441Z,10.90
2022-10-22T02:54:01.098Z,11.00
2022-10-22T02:56:27.721Z,10.87
2022-10-22T02:58:54.304Z,10.89
2022-10-22T03:01:21.591Z,10.94
2022-10-22T03:03:48.277Z,10.85
2022-10-22T03:06:15.092Z,10.82
2022-10-22T03:08:41.827Z,10.91
2022-10-22T03:11:08.738Z,10.81
2022-10-22T03:13:35.358Z,10.86
2022-10-22T03:16:02.321Z,10.78
2022-10-22T03:18:28.865Z,10.81
2022-10-22T03:21:11.255Z,10.95
2022-10-22T03:23:40.852Z,11.08
2022-10-22T03:26:08.889Z,11.03
2022-10-22T03:28:37.221Z,10.95
2022-10-22T03:31:03.886Z,10.84
2022-10-22T03:33:30.437Z,10.76
2022-10-22T03:35:57.258Z,10.82
2022-10-22T03:38:23.971Z,10.79
2022-10-22T03:40:50.821Z,10.80
2022-10-22T03:43:17.598Z,10.99
2022-10-22T03:45:44.290Z,10.99
2022-10-22T03:48:10.749Z,11.03
2022-10-22T03:50:37.278Z,11.04
2022-10-22T03:53:04.478Z,11.02
2022-10-22T03:55:31.035Z,10.88
2022-10-22T03:57:57.512Z,11.00
2022-10-22T04:00:24.115Z,11.02
2022-10-22T04:02:50.606Z,10.89
2022-10-22T04:05:17.251Z,10.93
2022-10-22T04:07:44.042Z,10.98
2022-10-22T04:10:10.728Z,10.89
2022-10-22T04:12:37.304Z,10.90
2022-10-22T04:15:04.870Z,10.80
2022-10-22T04:17:38.347Z,10.92
2022-10-22T04:20:06.156Z,10.88
2022-10-22T04:22:36.316Z,10.75
2022-10-22T04:25:04.297Z,10.88
2022-10-22T04:27:31.823Z,10.75
2022-10-22T04:29:58.715Z,10.67
2022-10-22T04:32:27.017Z,10.92
2022-10-22T04:34:53.838Z,10.96
2022-10-22T04:37:20.635Z,10.95
2022-10-22T04:39:47.247Z,11.00
2022-10-22T04:42:14.205Z,10.89
2022-10-22T04:44:40.735Z,11.01
2022-10-22T04:47:07.374Z,11.01
2022-10-22T04:49:34.004Z,10.94
2022-10-22T04:52:00.628Z,10.91
2022-10-22T04:54:30.507Z,10.86
2022-10-22T04:56:59.781Z,10.78
2022-10-22T04:59:26.565Z,10.99
2022-10-22T05:01:53.116Z,10.81
2022-10-22T05:04:19.787Z,10.75
2022-10-22T05:06:46.579Z,10.64
2022-10-22T05:09:19.194Z,10.53
2022-10-22T05:11:51.172Z,10.49
2022-10-22T05:14:20.818Z,10.49
2022-10-22T05:16:48.741Z,10.61
2022-10-22T05:19:20.013Z,10.73
2022-10-22T05:21:46.803Z,10.53
2022-10-22T05:24:13.404Z,10.51
2022-10-22T05:26:40.031Z,10.53
2022-10-22T05:29:06.755Z,10.51
2022-10-22T05:31:33.324Z,10.53
2022-10-22T05:33:59.922Z,10.68
2022-10-22T05:36:26.661Z,10.67
2022-10-22T05:38:53.730Z,10.87
2022-10-22T05:41:22.934Z,10.87
2022-10-22T05:43:49.813Z,10.99
2022-10-22T05:46:22.545Z,11.14
2022-10-22T05:48:58.332Z,11.15
2022-10-22T05:51:27.703Z,11.00
2022-10-22T05:54:07.485Z,11.05
2022-10-22T05:56:34.659Z,10.95
2022-10-22T06:01:37.626Z,11.09
2022-10-22T06:04:07.398Z,11.04
2022-10-22T06:06:44.433Z,11.05
2022-10-22T06:09:20.027Z,11.08
2022-10-22T06:11:47.925Z,11.04
2022-10-22T06:14:15.038Z,11.07
2022-10-22T06:16:41.869Z,11.19
2022-10-22T06:19:09.565Z,11.37
2022-10-22T06:21:36.130Z,11.52
2022-10-22T06:24:02.654Z,11.52
2022-10-22T06:26:30.360Z,11.55
2022-10-22T06:28:57.755Z,11.54
2022-10-22T06:31:26.442Z,11.56
2022-10-22T06:33:53.202Z,11.42
2022-10-22T06:36:23.255Z,11.43
2022-10-22T06:38:56.235Z,11.34
2022-10-22T06:41:25.761Z,11.31
2022-10-22T06:43:57.221Z,11.42
2022-10-22T06:46:24.613Z,11.43
2022-10-22T06:48:55.825Z,11.44
2022-10-22T06:51:22.500Z,11.47
2022-10-22T06:53:50.053Z,11.45
2022-10-22T06:56:20.764Z,11.55
2022-10-22T06:58:48.358Z,11.50
2022-10-22T07:01:16.601Z,11.41
2022-10-22T07:03:43.155Z,11.44
2022-10-22T07:06:12.430Z,11.43
2022-10-22T07:08:40.525Z,11.30
2022-10-22T07:11:12.513Z,11.41
2022-10-22T07:13:39.111Z,11.38
2022-10-22T07:16:07.615Z,11.46
2022-10-22T07:18:34.865Z,11.48
2022-10-22T07:21:02.163Z,11.24
2022-10-22T07:23:29.233Z,11.33
2022-10-22T07:28:28.695Z,11.30
2022-10-22T07:30:55.147Z,11.23
2022-10-22T07:33:21.906Z,11.32
2022-10-22T07:35:48.487Z,11.38
2022-10-22T07:38:14.931Z,11.43
2022-10-22T07:40:41.467Z,11.35
2022-10-22T07:43:08.107Z,11.55
2022-10-22T07:45:34.613Z,11.48
2022-10-22T07:48:01.949Z,11.46
2022-10-22T07:50:28.562Z,11.43
2022-10-22T07:52:57.440Z,11.44
2022-10-22T07:55:24.892Z,11.33
2022-10-22T07:57:51.499Z,11.43
2022-10-22T08:00:20.516Z,11.46
2022-10-22T08:02:49.670Z,11.41
2022-10-22T08:05:16.640Z,11.37
2022-10-22T08:07:43.586Z,11.31
2022-10-22T08:10:12.063Z,11.37
2022-10-22T08:12:39.448Z,11.30
2022-10-22T08:15:06.934Z,11.19
2022-10-22T08:17:33.540Z,11.20
2022-10-22T08:20:00.110Z,11.09
2022-10-22T08:22:26.804Z,11.15
2022-10-22T08:24:53.583Z,11.29
2022-10-22T08:27:20.415Z,11.32
2022-10-22T08:29:49.082Z,11.33
2022-10-22T08:32:18.910Z,11.45
2022-10-22T08:34:48.466Z,11.58
2022-10-22T08:37:18.206Z,11.58
2022-10-22T08:39:45.746Z,11.67
2022-10-22T08:43:02.418Z,11.75
2022-10-22T08:46:01.436Z,11.86
2022-10-22T08:49:03.655Z,12.01
2022-10-22T08:51:44.148Z,12.20
2022-10-22T08:54:27.357Z,12.40
2022-10-22T08:57:15.011Z,12.49
2022-10-22T08:59:46.879Z,12.59
2022-10-22T09:02:33.828Z,12.58
2022-10-22T09:05:21.709Z,12.65
2022-10-22T09:07:50.339Z,12.71
2022-10-22T09:10:19.136Z,12.64
2022-10-22T09:12:48.227Z,12.60
2022-10-22T09:15:16.850Z,12.65
2022-10-22T09:17:59.875Z,12.75
2022-10-22T09:20:51.693Z,12.84
2022-10-22T09:23:43.235Z,12.79
2022-10-22T09:26:15.637Z,12.86
2022-10-22T09:28:42.712Z,12.96
2022-10-22T09:31:14.205Z,13.04
2022-10-22T09:33:42.150Z,13.27
2022-10-22T09:36:13.896Z,13.35
2022-10-22T09:38:46.231Z,13.63
2022-10-22T09:41:14.515Z,13.78
2022-10-22T09:43:41.166Z,14.00
2022-10-22T09:46:20.179Z,14.11
2022-10-22T09:49:02.275Z,14.33
2022-10-22T09:51:53.357Z,14.66
2022-10-22T09:54:37.162Z,14.98
2022-10-22T09:57:17.557Z,15.33
2022-10-22T09:59:48.184Z,15.64
2022-10-22T10:02:26.511Z,16.00
2022-10-22T10:05:03.580Z,16.40
2022-10-22T10:07:32.418Z,16.67
2022-10-22T10:09:59.684Z,16.73
2022-10-22T10:12:41.047Z,17.06
2022-10-22T10:15:24.275Z,16.68
2022-10-22T10:18:20.259Z,16.60
2022-10-22T10:20:56.088Z,17.19
2022-10-22T10:23:47.796Z,16.97
2022-10-22T10:26:41.112Z,16.54
2022-10-22T10:29:18.701Z,16.46
2022-10-22T10:32:06.074Z,17.60
2022-10-22T10:34:35.722Z,18.41
2022-10-22T10:37:10.638Z,18.41
2022-10-22T10:39:52.808Z,18.28
2022-10-22T10:42:22.477Z,18.24
2022-10-22T10:45:22.199Z,19.04
2022-10-22T10:48:32.342Z,-146.37
2022-10-22T10:51:37.092Z,-146.37
2022-10-22T10:54:28.480Z,-146.37
2022-10-22T10:57:02.995Z,-146.37
2022-10-22T10:59:47.064Z,-146.37
2022-10-22T11:02:52.286Z,-146.37
2022-10-22T11:05:40.603Z,18.35
2022-10-22T11:08:22.353Z,17.70
2022-10-22T11:10:55.410Z,17.23
2022-10-22T11:13:49.695Z,16.52
2022-10-22T11:16:23.343Z,16.21
2022-10-22T11:19:06.953Z,15.63
2022-10-22T11:21:40.352Z,15.54
2022-10-22T11:24:34.426Z,15.26
2022-10-22T11:27:07.128Z,14.92
2022-10-22T11:29:47.835Z,14.69
2022-10-22T11:32:21.246Z,14.73
2022-10-22T11:34:56.030Z,14.69
2022-10-22T11:37:27.370Z,14.64
2022-10-22T11:39:57.273Z,14.73
2022-10-22T11:42:44.841Z,14.91
2022-10-22T11:45:14.252Z,14.92
2022-10-22T11:48:06.138Z,14.90
2022-10-22T11:50:44.957Z,14.98
2022-10-22T11:53:14.461Z,15.09
2022-10-22T11:55:50.573Z,15.05
2022-10-22T11:58:29.992Z,15.17
2022-10-22T12:01:09.690Z,15.19
2022-10-22T12:03:58.740Z,15.26
2022-10-22T12:06:28.909Z,15.45
2022-10-22T12:09:05.975Z,15.34
2022-10-22T12:11:38.931Z,15.58
2022-10-22T12:14:14.817Z,16.08
2022-10-22T12:16:58.191Z,16.91
2022-10-22T12:19:37.982Z,18.02
2022-10-22T12:22:07.746Z,18.02
2022-10-22T12:24:40.693Z,19.65
2022-10-22T12:27:38.442Z,20.44
2022-10-22T12:30:36.716Z,20.44
2022-10-22T12:33:06.712Z,21.11
2022-10-22T12:35:41.619Z,20.49
2022-10-22T12:38:20.377Z,20.08
2022-10-22T12:40:48.908Z,19.55
2022-10-22T12:43:28.598Z,19.29
2022-10-22T12:45:57.755Z,18.91
2022-10-22T12:48:32.023Z,18.47
2022-10-22T12:51:00.780Z,18.32
2022-10-22T12:53:33.153Z,18.07
2022-10-22T12:56:02.847Z,17.97
2022-10-22T12:58:38.275Z,17.72
2022-10-22T13:01:05.469Z,17.64
2022-10-22T13:03:40.467Z,17.54
2022-10-22T13:06:19.437Z,17.36
2022-10-22T13:09:04.385Z,17.28
2022-10-22T13:11:39.880Z,17.21
2022-10-22T13:14:45.532Z,17.27
2022-10-22T13:17:18.034Z,17.33
2022-10-22T13:19:53.815Z,17.27
2022-10-22T13:22:28.630Z,17.27
2022-10-22T13:27:24.021Z,17.20
2022-10-22T13:29:50.915Z,17.19
2022-10-22T13:32:33.547Z,17.07
2022-10-22T13:35:02.381Z,16.97
2022-10-22T13:37:31.282Z,17.04
2022-10-22T13:39:58.381Z,16.89
2022-10-22T13:42:25.133Z,16.79
2022-10-22T13:44:51.748Z,16.62
2022-10-22T13:47:27.248Z,16.77
2022-10-22T13:49:58.459Z,16.76
2022-10-22T13:52:38.419Z,16.73
2022-10-22T13:55:40.907Z,16.66
2022-10-22T13:58:12.145Z,16.76
2022-10-22T14:00:41.115Z,16.64
2022-10-22T14:03:14.322Z,16.70
2022-10-22T14:05:41.524Z,16.71
2022-10-22T14:08:18.836Z,16.66
2022-10-22T14:10:45.472Z,16.58
2022-10-22T14:13:13.760Z,16.60
2022-10-22T14:15:41.850Z,16.60
2022-10-22T14:18:12.569Z,16.54
2022-10-22T14:20:40.876Z,16.64
2022-10-22T14:23:18.857Z,16.53
2022-10-22T14:25:45.575Z,16.50
2022-10-22T14:28:13.000Z,16.43
2022-10-22T14:30:40.473Z,16.28
2022-10-22T14:33:16.247Z,16.31
2022-10-22T14:35:43.362Z,16.43
2022-10-22T14:38:10.253Z,16.43
2022-10-22T14:40:41.969Z,16.34
2022-10-22T14:43:20.943Z,16.27
2022-10-22T14:45:48.028Z,16.24
2022-10-22T14:48:16.101Z,16.04
2022-10-22T14:50:44.422Z,16.00
2022-10-22T14:53:11.197Z,15.69
2022-10-22T14:55:37.742Z,15.62
2022-10-22T14:58:04.346Z,15.50
2022-10-22T15:00:31.062Z,15.42
2022-10-22T15:03:03.269Z,15.45
2022-10-22T15:05:31.002Z,15.40
2022-10-22T15:07:59.141Z,15.39
2022-10-22T15:10:26.629Z,15.41
2022-10-22T15:12:53.545Z,15.83
2022-10-22T15:15:22.708Z,15.79
2022-10-22T15:17:50.440Z,15.63
2022-10-22T15:20:17.232Z,15.53
2022-10-22T15:22:45.440Z,15.32
2022-10-22T15:25:13.586Z,15.23
2022-10-22T15:27:40.526Z,15.17
2022-10-22T15:30:08.505Z,15.09
2022-10-22T15:32:35.433Z,15.00
2022-10-22T15:35:02.318Z,14.89
2022-10-22T15:37:28.939Z,14.91
2022-10-22T15:39:55.664Z,14.87
2022-10-22T15:42:23.348Z,14.75
2022-10-22T15:44:59.038Z,14.53
2022-10-22T15:47:29.553Z,14.49
2022-10-22T15:49:56.702Z,14.32
2022-10-22T15:52:23.423Z,14.22
2022-10-22T15:54:50.206Z,14.19
2022-10-22T15:57:16.875Z,14.09
2022-10-22T15:59:43.644Z,14.06
2022-10-22T16:02:11.611Z,14.01
2022-10-22T16:04:39.241Z,13.89
2022-10-22T16:07:06.033Z,13.82
2022-10-22T16:09:32.809Z,13.82
2022-10-22T16:11:59.354Z,13.54
2022-10-22T16:14:26.085Z,13.43
2022-10-22T16:16:55.551Z,13.32
2022-10-22T16:19:24.110Z,13.23
2022-10-22T16:21:52.762Z,13.12
2022-10-22T16:24:20.113Z,12.83
2022-10-22T16:26:47.685Z,12.70
2022-10-22T16:29:15.031Z,12.69
2022-10-22T16:31:43.736Z,12.37
2022-10-22T16:34:10.964Z,12.38
2022-10-22T16:36:38.363Z,12.35
2022-10-22T16:39:06.416Z,12.46
2022-10-22T16:41:36.571Z,12.48
2022-10-22T16:44:06.197Z,12.38
2022-10-22T16:46:33.682Z,12.54
2022-10-22T16:49:00.456Z,12.49
2022-10-22T16:51:28.515Z,12.36
2022-10-22T16:53:57.258Z,12.53
2022-10-22T16:56:25.366Z,12.57
2022-10-22T16:58:54.202Z,12.74
2022-10-22T17:01:23.267Z,12.85
2022-10-22T17:03:49.980Z,12.91
2022-10-22T17:06:16.754Z,13.02
2022-10-22T17:08:43.392Z,13.23
2022-10-22T17:11:12.775Z,13.34
2022-10-22T17:13:43.015Z,13.31
2022-10-22T17:16:13.338Z,13.12
2022-10-22T17:18:42.077Z,13.10
2022-10-22T17:21:11.219Z,13.26
2022-10-22T17:23:38.408Z,13.24
2022-10-22T17:26:07.657Z,12.98
2022-10-22T17:28:38.501Z,13.06
2022-10-22T17:31:24.003Z,13.22
2022-10-22T17:33:52.787Z,13.26
2022-10-22T17:36:20.439Z,13.33
2022-10-22T17:38:53.288Z,13.38
2022-10-22T17:41:23.054Z,13.36
2022-10-22T17:43:50.163Z,13.19
2022-10-22T17:46:20.301Z,13.31
2022-10-22T17:48:58.913Z,13.29
2022-10-22T17:51:27.188Z,13.17
2022-10-22T17:53:54.338Z,13.10
2022-10-22T17:56:26.924Z,13.22
2022-10-22T17:58:54.812Z,13.20
2022-10-22T18:01:25.222Z,13.09
2022-10-22T18:03:54.008Z,13.10
2022-10-22T18:06:21.308Z,13.05
2022-10-22T18:08:48.287Z,12.86
2022-10-22T18:11:19.029Z,12.72
2022-10-22T18:13:48.905Z,12.73
2022-10-22T18:16:15.589Z,12.47
2022-10-22T18:18:46.067Z,12.38
2022-10-22T18:21:13.290Z,12.55
2022-10-22T18:23:40.400Z,12.62
2022-10-22T18:26:07.159Z,12.64
2022-10-22T18:28:34.328Z,12.68
2022-10-22T18:31:06.617Z,12.60
2022-10-22T18:33:34.215Z,12.54
2022-10-22T18:36:09.218Z,12.60
2022-10-22T18:38:38.314Z,12.63
2022-10-22T18:41:10.035Z,12.71
2022-10-22T18:43:46.022Z,12.78
2022-10-22T18:46:14.168Z,12.86
2022-10-22T18:48:41.256Z,12.69
2022-10-22T18:51:08.958Z,12.64
2022-10-22T18:53:39.439Z,12.69
2022-10-22T18:56:11.442Z,12.86
2022-10-22T18:58:39.671Z,12.76
2022-10-22T19:01:12.865Z,12.63
2022-10-22T19:03:41.685Z,12.63
2022-10-22T19:06:08.734Z,12.55
2022-10-22T19:08:36.409Z,12.66
2022-10-22T19:11:09.841Z,12.51
2022-10-22T19:13:36.811Z,12.35
2022-10-22T19:16:05.630Z,12.29
2022-10-22T19:18:33.052Z,12.43
2022-10-22T19:21:04.062Z,12.17
2022-10-22T19:23:31.224Z,12.12
2022-10-22T19:26:07.200Z,12.08
2022-10-22T19:28:33.826Z,12.28
2022-10-22T19:31:00.958Z,12.40
2022-10-22T19:33:27.560Z,12.42
2022-10-22T19:35:54.228Z,12.47
2022-10-22T19:38:20.963Z,12.32
2022-10-22T19:40:47.682Z,12.32
2022-10-22T19:43:22.919Z,12.28
2022-10-22T19:45:56.107Z,12.44
2022-10-22T19:48:22.906Z,12.34
2022-10-22T19:50:49.456Z,12.37
2022-10-22T19:53:16.029Z,12.27
2022-10-22T19:55:44.426Z,12.42
2022-10-22T19:58:12.620Z,12.48
2022-10-22T20:00:39.425Z,12.66
2022-10-22T20:03:06.225Z,12.64
2022-10-22T20:05:32.799Z,12.72
2022-10-22T20:07:59.434Z,12.85
2022-10-22T20:10:26.537Z,12.93
2022-10-22T20:12:53.130Z,13.01
2022-10-22T20:15:21.732Z,12.96
2022-10-22T20:17:48.614Z,12.95
2022-10-22T20:20:15.308Z,13.09
2022-10-22T20:22:43.285Z,12.98
2022-10-22T20:25:11.813Z,12.99
2022-10-22T20:27:38.886Z,13.09
2022-10-22T20:30:07.008Z,12.96
2022-10-22T20:32:37.154Z,13.10
2022-10-22T20:35:04.576Z,12.96
2022-10-22T20:37:31.196Z,12.83
2022-10-22T20:39:58.073Z,12.65
2022-10-22T20:42:24.584Z,12.56
2022-10-22T20:44:51.187Z,12.56
2022-10-22T20:47:18.080Z,12.60
2022-10-22T20:49:44.846Z,12.58
2022-10-22T20:52:11.404Z,12.52
2022-10-22T20:54:41.518Z,12.66
2022-10-22T20:57:08.535Z,12.55
2022-10-22T20:59:35.249Z,12.71
2022-10-22T21:02:02.467Z,12.60
2022-10-22T21:04:29.700Z,12.70
2022-10-22T21:06:57.435Z,12.55
2022-10-22T21:09:25.058Z,12.51
2022-10-22T21:14:23.094Z,12.52
2022-10-22T21:16:51.193Z,12.61
2022-10-22T21:19:19.292Z,12.49
2022-10-22T21:21:46.044Z,12.38
2022-10-22T21:24:12.731Z,12.64
2022-10-22T21:26:41.528Z,12.65
2022-10-22T21:29:09.568Z,12.49
2022-10-22T21:31:36.866Z,12.36
2022-10-22T21:34:03.716Z,12.44
2022-10-22T21:36:30.389Z,12.65
2022-10-22T21:38:56.999Z,12.61
2022-10-22T21:41:24.525Z,12.46
2022-10-22T21:43:51.683Z,12.44
2022-10-22T21:46:23.732Z,12.41
2022-10-22T21:48:58.399Z,12.42
2022-10-22T21:51:25.839Z,12.42
2022-10-22T21:56:23.306Z,12.65
2022-10-22T21:58:50.006Z,12.51
2022-10-22T22:01:17.597Z,12.47
2022-10-22T22:03:48.044Z,12.42
2022-10-22T22:06:19.107Z,12.52
2022-10-22T22:08:48.112Z,12.41
2022-10-22T22:11:19.466Z,12.38
2022-10-22T22:13:48.428Z,12.25
2022-10-22T22:16:25.399Z,12.44
2022-10-22T22:18:54.971Z,12.32
2022-10-22T22:21:22.405Z,12.36
2022-10-22T22:23:50.040Z,12.27
2022-10-22T22:26:25.214Z,12.23
2022-10-22T22:28:55.659Z,12.23
2022-10-22T22:31:25.471Z,12.42
2022-10-22T22:33:57.806Z,12.11
2022-10-22T22:36:24.379Z,12.07
2022-10-22T22:38:54.678Z,11.98
2022-10-22T22:41:21.244Z,12.13
2022-10-22T22:43:47.807Z,12.09
2022-10-22T22:46:14.353Z,12.01
2022-10-22T22:48:40.831Z,12.01
2022-10-22T22:51:08.014Z,11.92
2022-10-22T22:53:35.167Z,12.11
2022-10-22T22:56:16.424Z,12.09
2022-10-22T22:58:43.754Z,12.18
2022-10-22T23:01:23.917Z,12.16
2022-10-22T23:04:02.637Z,12.24
2022-10-22T23:06:32.274Z,12.12
2022-10-22T23:08:59.723Z,11.97
2022-10-22T23:11:27.872Z,11.97
2022-10-22T23:14:00.134Z,11.84
2022-10-22T23:16:29.446Z,11.77
2022-10-22T23:18:57.433Z,11.83
2022-10-22T23:21:27.430Z,11.93
2022-10-22T23:23:59.753Z,11.65
2022-10-22T23:26:33.822Z,11.40
2022-10-22T23:29:05.888Z,11.33
2022-10-22T23:31:32.471Z,11.53
2022-10-22T23:33:59.183Z,11.42
2022-10-22T23:36:26.291Z,11.54
2022-10-22T23:38:52.917Z,11.70
2022-10-22T23:41:19.435Z,11.62
2022-10-22T23:43:46.032Z,11.74
2022-10-22T23:46:13.661Z,11.65
2022-10-22T23:48:40.623Z,11.59
2022-10-22T23:51:15.697Z,11.75
2022-10-22T23:53:44.647Z,11.76
2022-10-22T23:56:15.368Z,11.90
2022-10-22T23:58:42.525Z,11.93
